Terminal Aerodrome Forecast
Issued by NWS

Home | Current Version | Previous Version | Text Only | Print | Product List | Glossary On
Versions: 1 2 3 4 5 6 7 8 9 10 11 12 13 14 15 16 17 18 19 20 21 22 23 24 25 26 27 28 29 30 31
000
FTUS45 KBOU 231131
TAFBJC
TAF
KBJC 231131Z 2312/2412 33005KT P6SM FEW120
     FM231300 32004KT P6SM FEW012 SCT120
     FM231600 VRB05KT P6SM FEW120 SCT200
     FM231800 11007KT P6SM SCT090 BKN180
     FM232000 22010KT P6SM SCT090 BKN180
      TEMPO 2320/2324 VRB20G32KT -TSRA BKN090CB
     FM240400 19011KT P6SM FEW120 BKN200=

USA.gov is the U.S. government's official web portal to all federal, state and local government web resources and services.